Time;durP1;ratioP1;P1;durP2;ratioP2;P2;SDS_P1;SDS_P2;PMS_P1;PMS_P2;Temp;Humidity;BMP_temperature;BMP_pressure;BME280_temperature;BME280_humidity;BME280_pressure;Samples;Min_cycle;Max_cycle;Signal;HPM_P1;HPM_P2
2022/01/03 00:00:10;;;;;;;;;;;7.50;86.30;;;;;;5026086;28;88891;-47
2022/01/03 00:02:36;;;;;;;;;;;7.50;86.30;;;;;;5025696;28;89336;-48
2022/01/03 00:05:02;;;;;;;;;;;7.40;86.20;;;;;;5025925;28;87112;-48
2022/01/03 00:07:28;;;;;;;;;;;7.50;86.30;;;;;;5026306;28;86854;-47
2022/01/03 00:09:53;;;;;;;;;;;7.50;86.30;;;;;;5025521;28;89507;-47
2022/01/03 00:12:20;;;;;;;;;;;7.40;86.30;;;;;;5026133;28;86353;-46
2022/01/03 00:14:47;;;;;;;;;;;7.40;86.40;;;;;;5025750;28;88166;-46
2022/01/03 00:17:12;;;;;;;;;;;7.40;86.30;;;;;;5028494;28;89713;-48
2022/01/03 00:19:38;;;;;;;;;;;7.40;86.30;;;;;;5025354;28;87728;-48
2022/01/03 00:22:05;;;;;;;;;;;7.40;86.20;;;;;;5025424;28;88478;-47
2022/01/03 00:24:34;;;;;;;;;;;7.40;86.20;;;;;;5025548;28;87092;-47
2022/01/03 00:27:01;;;;;;;;;;;7.40;86.20;;;;;;5025315;28;88674;-47
2022/01/03 00:29:29;;;;;;;;;;;7.40;86.30;;;;;;5025134;28;89373;-47
2022/01/03 00:31:56;;;;;;;;;;;7.40;86.30;;;;;;5025627;28;87095;-47
2022/01/03 00:34:23;;;;;;;;;;;7.40;86.30;;;;;;5025677;28;88920;-47
2022/01/03 00:36:51;;;;;;;;;;;7.40;86.80;;;;;;5025691;28;88794;-47
2022/01/03 00:39:16;;;;;;;;;;;7.40;86.10;;;;;;5028459;28;87248;-47
2022/01/03 00:41:43;;;;;;;;;;;7.40;86.20;;;;;;5025073;28;89773;-47
2022/01/03 00:44:09;;;;;;;;;;;7.30;86.20;;;;;;5024960;28;88059;-47
2022/01/03 00:46:35;;;;;;;;;;;7.30;86.30;;;;;;5024202;28;90145;-47
2022/01/03 00:49:01;;;;;;;;;;;7.40;86.40;;;;;;5024906;28;89226;-47
2022/01/03 00:51:26;;;;;;;;;;;7.40;86.40;;;;;;5025305;28;87112;-48
2022/01/03 00:53:52;;;;;;;;;;;7.30;86.30;;;;;;5025608;28;86948;-47
2022/01/03 00:56:33;;;;;;;;;;;7.40;86.40;;;;;;5024532;28;88632;-48
2022/01/03 00:59:04;;;;;;;;;;;7.30;86.30;;;;;;5025145;28;87142;-47
2022/01/03 01:01:30;;;;;;;;;;;7.30;86.30;;;;;;5028197;28;88924;-50
2022/01/03 01:03:57;;;;;;;;;;;7.40;86.30;;;;;;5025297;28;87009;-47
2022/01/03 01:06:23;;;;;;;;;;;7.30;86.20;;;;;;5025101;28;88803;-48
2022/01/03 01:08:54;;;;;;;;;;;7.30;86.30;;;;;;5023882;28;90619;-47
2022/01/03 01:11:21;;;;;;;;;;;7.30;86.30;;;;;;5025175;28;86989;-47
2022/01/03 01:13:47;;;;;;;;;;;7.30;86.30;;;;;;5024911;28;88929;-47
2022/01/03 01:16:14;;;;;;;;;;;7.30;86.20;;;;;;5024374;28;89439;-48
2022/01/03 01:18:40;;;;;;;;;;;7.30;86.20;;;;;;5024832;28;87127;-46
2022/01/03 01:21:06;;;;;;;;;;;7.30;86.30;;;;;;5024874;28;88997;-48
2022/01/03 01:23:32;;;;;;;;;;;7.30;86.30;;;;;;5027346;28;88111;-46
2022/01/03 01:28:42;;;;;;;;;;;7.30;86.40;;;;;;5024615;28;87268;-48
2022/01/03 01:31:08;;;;;;;;;;;7.30;86.20;;;;;;5024683;28;87092;-48
2022/01/03 01:33:34;;;;;;;;;;;7.30;86.30;;;;;;5023890;28;88948;-47
2022/01/03 01:36:02;;;;;;;;;;;7.30;86.20;;;;;;5024260;28;89191;-48
2022/01/03 01:38:35;;;;;;;;;;;7.30;86.30;;;;;;5023161;28;87121;-49
2022/01/03 01:41:02;;;;;;;;;;;7.20;86.30;;;;;;5024396;28;88945;-47
2022/01/03 01:43:39;;;;;;;;;;;7.20;86.30;;;;;;5024143;28;88335;-47
2022/01/03 01:46:09;;;;;;;;;;;7.30;86.30;;;;;;5027335;28;87116;-47
2022/01/03 01:48:36;;;;;;;;;;;7.20;86.20;;;;;;5023870;28;89533;-47
2022/01/03 01:51:02;;;;;;;;;;;7.20;86.20;;;;;;5025066;28;86385;-47
2022/01/03 01:53:28;;;;;;;;;;;7.20;86.10;;;;;;5024207;28;88410;-48
2022/01/03 01:55:55;;;;;;;;;;;7.20;86.20;;;;;;5023809;28;89430;-47
2022/01/03 01:58:23;;;;;;;;;;;7.20;86.20;;;;;;5023411;28;88083;-48
2022/01/03 02:00:55;;;;;;;;;;;7.20;86.10;;;;;;5024220;28;89659;-46
2022/01/03 02:03:21;;;;;;;;;;;7.20;86.20;;;;;;5023808;28;89724;-48
2022/01/03 02:06:07;;;;;;;;;;;7.20;86.20;;;;;;5024317;28;87166;-47
2022/01/03 02:08:38;;;;;;;;;;;7.20;86.20;;;;;;5026878;28;89222;-47
2022/01/03 02:11:27;;;;;;;;;;;7.20;86.00;;;;;;5024355;28;86954;-47
2022/01/03 02:13:53;;;;;;;;;;;7.10;86.00;;;;;;5017540;27;88873;-47
2022/01/03 02:16:19;;;;;;;;;;;7.20;86.00;;;;;;5024180;28;87987;-47
2022/01/03 02:18:44;;;;;;;;;;;7.10;86.10;;;;;;5023900;28;87110;-47
2022/01/03 02:21:10;;;;;;;;;;;7.10;86.00;;;;;;5023828;28;88906;-48
2022/01/03 02:23:36;;;;;;;;;;;7.10;86.00;;;;;;5022758;28;90597;-47
2022/01/03 02:26:01;;;;;;;;;;;7.10;86.00;;;;;;5023065;28;87063;-47
2022/01/03 02:28:27;;;;;;;;;;;7.10;85.90;;;;;;5026067;28;88703;-47
2022/01/03 02:30:52;;;;;;;;;;;7.10;85.90;;;;;;5023604;28;87133;-47
2022/01/03 02:33:18;;;;;;;;;;;7.10;85.90;;;;;;5023716;28;88895;-47
2022/01/03 02:35:45;;;;;;;;;;;7.10;85.80;;;;;;5023240;28;89954;-47
2022/01/03 02:38:10;;;;;;;;;;;7.10;85.80;;;;;;5023683;28;87016;-48
2022/01/03 02:40:36;;;;;;;;;;;7.10;85.90;;;;;;5023967;28;88834;-47
2022/01/03 02:43:01;;;;;;;;;;;7.10;85.80;;;;;;5023150;28;89351;-47
2022/01/03 02:45:27;;;;;;;;;;;7.10;85.80;;;;;;5023593;28;87133;-50
2022/01/03 02:47:55;;;;;;;;;;;7.00;85.90;;;;;;5022922;28;88656;-47
2022/01/03 02:50:21;;;;;;;;;;;7.00;85.90;;;;;;5025996;28;89418;-49
2022/01/03 02:52:47;;;;;;;;;;;7.00;85.80;;;;;;5023591;28;87254;-48
2022/01/03 02:55:13;;;;;;;;;;;7.00;85.80;;;;;;5023095;28;89664;-47
2022/01/03 02:57:41;;;;;;;;;;;7.00;85.70;;;;;;5023071;28;87158;-47
2022/01/03 03:00:08;;;;;;;;;;;7.00;85.70;;;;;;5023481;28;88649;-47
2022/01/03 03:02:33;;;;;;;;;;;7.00;85.70;;;;;;5021774;28;91813;-47
2022/01/03 03:05:00;;;;;;;;;;;7.00;85.70;;;;;;5023914;28;86431;-47
2022/01/03 03:07:27;;;;;;;;;;;7.00;85.70;;;;;;5023130;28;88153;-47
2022/01/03 03:09:52;;;;;;;;;;;7.00;85.70;;;;;;5025616;28;89337;-49
2022/01/03 03:12:18;;;;;;;;;;;7.00;85.70;;;;;;5028916;28;88054;-47
2022/01/03 03:14:44;;;;;;;;;;;7.00;85.70;;;;;;5026525;28;89384;-47
2022/01/03 03:17:09;;;;;;;;;;;7.00;85.80;;;;;;5026686;28;87043;-49
2022/01/03 03:19:55;;;;;;;;;;;6.90;85.80;;;;;;5026686;28;88144;-47
2022/01/03 03:22:22;;;;;;;;;;;6.90;85.70;;;;;;5025964;27;89451;-48
2022/01/03 03:24:47;;;;;;;;;;;6.90;85.70;;;;;;5026589;28;87105;-47
2022/01/03 03:27:13;;;;;;;;;;;6.90;85.70;;;;;;5026208;28;88748;-48
2022/01/03 03:29:47;;;;;;;;;;;6.90;85.60;;;;;;5026705;28;88698;-47
2022/01/03 03:32:12;;;;;;;;;;;6.90;85.70;;;;;;5026695;28;86778;-48
2022/01/03 03:34:38;;;;;;;;;;;6.90;85.70;;;;;;5029252;28;87171;-47
2022/01/03 03:37:04;;;;;;;;;;;6.90;85.80;;;;;;5025663;28;88087;-47
2022/01/03 03:39:31;;;;;;;;;;;6.90;85.70;;;;;;5026256;28;88860;-47
2022/01/03 03:41:57;;;;;;;;;;;6.90;85.70;;;;;;5024613;28;91101;-47
2022/01/03 03:44:22;;;;;;;;;;;6.90;85.70;;;;;;5026354;28;87116;-47
2022/01/03 03:46:48;;;;;;;;;;;6.80;85.70;;;;;;5026254;28;88939;-47
2022/01/03 03:49:13;;;;;;;;;;;6.80;85.80;;;;;;5025977;28;89542;-47
2022/01/03 03:51:39;;;;;;;;;;;6.80;85.70;;;;;;5025927;28;87077;-47
2022/01/03 03:54:04;;;;;;;;;;;6.80;85.70;;;;;;5026626;28;88897;-49
2022/01/03 03:56:30;;;;;;;;;;;6.80;85.70;;;;;;5029073;28;89716;-47
2022/01/03 03:58:56;;;;;;;;;;;6.80;85.70;;;;;;5026127;28;88662;-47
2022/01/03 04:01:22;;;;;;;;;;;6.80;85.70;;;;;;5025063;28;90503;-48
2022/01/03 04:03:47;;;;;;;;;;;6.80;85.70;;;;;;5026170;28;87096;-47
2022/01/03 04:06:13;;;;;;;;;;;6.80;85.70;;;;;;5025905;28;89040;-49
2022/01/03 04:08:38;;;;;;;;;;;6.80;85.60;;;;;;5025494;28;89737;-47
2022/01/03 04:11:04;;;;;;;;;;;6.70;85.60;;;;;;5025932;28;87120;-48
2022/01/03 04:13:29;;;;;;;;;;;6.70;85.70;;;;;;5025934;28;88157;-47
2022/01/03 04:15:55;;;;;;;;;;;6.70;85.70;;;;;;5025682;28;87222;-47
2022/01/03 04:18:20;;;;;;;;;;;6.70;85.70;;;;;;5029011;28;86185;-48
2022/01/03 04:20:46;;;;;;;;;;;6.70;85.80;;;;;;5025356;28;89543;-50
2022/01/03 04:23:12;;;;;;;;;;;6.70;85.80;;;;;;5025635;28;87259;-47
2022/01/03 04:25:38;;;;;;;;;;;6.70;85.80;;;;;;5024372;28;89060;-47
2022/01/03 04:28:04;;;;;;;;;;;6.70;85.80;;;;;;5025354;28;89550;-48
2022/01/03 04:30:30;;;;;;;;;;;6.70;85.80;;;;;;5025868;28;87065;-48
2022/01/03 04:32:55;;;;;;;;;;;6.60;85.80;;;;;;5025412;28;88995;-46
2022/01/03 04:35:21;;;;;;;;;;;6.70;85.70;;;;;;5025281;28;89558;-48
2022/01/03 04:37:46;;;;;;;;;;;6.60;85.90;;;;;;5028320;28;87077;-47
2022/01/03 04:40:12;;;;;;;;;;;6.60;85.90;;;;;;5025068;28;89737;-47
2022/01/03 04:42:38;;;;;;;;;;;6.60;85.80;;;;;;5025896;28;86358;-47
2022/01/03 04:45:03;;;;;;;;;;;6.60;85.70;;;;;;5025357;28;88176;-48
2022/01/03 04:47:29;;;;;;;;;;;6.60;85.70;;;;;;5024999;28;88316;-48
2022/01/03 04:49:54;;;;;;;;;;;6.60;85.70;;;;;;5024950;28;88023;-47
2022/01/03 04:52:20;;;;;;;;;;;6.60;85.60;;;;;;5025171;28;90180;-47
2022/01/03 04:54:45;;;;;;;;;;;6.60;85.50;;;;;;5024699;28;89786;-48
2022/01/03 04:57:11;;;;;;;;;;;6.60;85.70;;;;;;5025253;28;87119;-49
2022/01/03 04:59:36;;;;;;;;;;;6.60;85.80;;;;;;5027798;28;89018;-46
2022/01/03 05:02:04;;;;;;;;;;;6.60;85.70;;;;;;5025136;28;87099;-47
2022/01/03 05:04:29;;;;;;;;;;;6.50;85.70;;;;;;5025338;28;88281;-47
2022/01/03 05:06:55;;;;;;;;;;;6.50;85.80;;;;;;5025282;28;87821;-47
2022/01/03 05:09:20;;;;;;;;;;;6.50;85.80;;;;;;5024759;28;87093;-46
2022/01/03 05:11:46;;;;;;;;;;;6.50;85.80;;;;;;5024924;28;89351;-47
2022/01/03 05:14:11;;;;;;;;;;;6.40;85.90;;;;;;5023970;28;89700;-47
2022/01/03 05:16:37;;;;;;;;;;;6.40;85.90;;;;;;5024795;28;86939;-48
2022/01/03 05:19:03;;;;;;;;;;;6.40;86.00;;;;;;5024883;28;88943;-47
2022/01/03 05:21:29;;;;;;;;;;;6.40;85.90;;;;;;5027552;28;88057;-47
2022/01/03 05:23:54;;;;;;;;;;;6.40;85.90;;;;;;5024752;28;89123;-47
2022/01/03 05:26:20;;;;;;;;;;;6.40;85.90;;;;;;5023561;28;89820;-47
2022/01/03 05:28:47;;;;;;;;;;;6.40;85.80;;;;;;5024718;28;87033;-47
2022/01/03 05:31:13;;;;;;;;;;;6.40;85.80;;;;;;5024472;28;87710;-47
2022/01/03 05:33:38;;;;;;;;;;;6.40;85.70;;;;;;5024253;28;89575;-47
2022/01/03 05:36:04;;;;;;;;;;;6.40;85.70;;;;;;5024618;28;87125;-47
2022/01/03 05:38:30;;;;;;;;;;;6.40;85.70;;;;;;5023968;28;89188;-47
2022/01/03 05:40:56;;;;;;;;;;;6.40;85.70;;;;;;5024249;28;89485;-47
2022/01/03 05:43:21;;;;;;;;;;;6.40;85.70;;;;;;5027253;28;87159;-47
2022/01/03 05:45:47;;;;;;;;;;;6.40;85.70;;;;;;5024209;28;89437;-47
2022/01/03 05:48:12;;;;;;;;;;;6.30;85.80;;;;;;5024322;28;87153;-48
2022/01/03 05:50:38;;;;;;;;;;;6.30;85.70;;;;;;5024420;28;89130;-48
2022/01/03 05:53:03;;;;;;;;;;;6.30;85.70;;;;;;5023918;28;89320;-47
2022/01/03 05:55:29;;;;;;;;;;;6.30;85.90;;;;;;5024625;28;86396;-47
2022/01/03 05:57:54;;;;;;;;;;;6.30;85.80;;;;;;5024248;28;87941;-47
2022/01/03 06:00:22;;;;;;;;;;;6.30;85.70;;;;;;5024189;28;87596;-47
2022/01/03 06:02:53;;;;;;;;;;;6.30;85.70;;;;;;5023594;28;88202;-47
2022/01/03 06:05:39;;;;;;;;;;;6.30;85.70;;;;;;5026878;28;89918;-47
2022/01/03 06:08:04;;;;;;;;;;;6.30;85.70;;;;;;5023914;28;87272;-49
2022/01/03 06:10:30;;;;;;;;;;;6.20;85.80;;;;;;5024179;28;89206;-47
2022/01/03 06:12:55;;;;;;;;;;;6.30;85.80;;;;;;5023699;28;89465;-47
2022/01/03 06:15:25;;;;;;;;;;;6.30;85.70;;;;;;5023913;28;87160;-47
2022/01/03 06:17:51;;;;;;;;;;;6.30;85.70;;;;;;5024033;28;89009;-49
2022/01/03 06:20:17;;;;;;;;;;;6.30;85.60;;;;;;5023955;28;88752;-47
2022/01/03 06:22:42;;;;;;;;;;;6.30;85.60;;;;;;5024064;28;87112;-47
2022/01/03 06:25:09;;;;;;;;;;;6.30;85.50;;;;;;5026573;28;87844;-47
2022/01/03 06:27:35;;;;;;;;;;;6.30;85.50;;;;;;5022906;28;88087;-48
2022/01/03 06:30:00;;;;;;;;;;;6.20;85.50;;;;;;5023827;28;89692;-47
2022/01/03 06:32:26;;;;;;;;;;;6.20;85.70;;;;;;5023282;28;88805;-47
2022/01/03 06:34:53;;;;;;;;;;;6.20;85.70;;;;;;5023672;28;87288;-47
2022/01/03 06:37:18;;;;;;;;;;;6.20;85.50;;;;;;5023439;28;88999;-47
2022/01/03 06:39:44;;;;;;;;;;;6.20;85.40;;;;;;5023443;28;90012;-47
2022/01/03 06:42:09;;;;;;;;;;;6.30;85.30;;;;;;5023638;28;87000;-47
2022/01/03 06:44:35;;;;;;;;;;;6.20;85.50;;;;;;5023053;28;88739;-47
2022/01/03 06:47:00;;;;;;;;;;;6.20;85.30;;;;;;5026392;28;87700;-48
2022/01/03 06:49:26;;;;;;;;;;;6.20;85.50;;;;;;5023495;28;89024;-47
2022/01/03 06:51:52;;;;;;;;;;;6.20;85.60;;;;;;5022076;28;90447;-49
2022/01/03 06:54:17;;;;;;;;;;;6.20;85.50;;;;;;5023456;28;87185;-47
2022/01/03 06:56:43;;;;;;;;;;;6.20;85.30;;;;;;5023270;28;89112;-47
2022/01/03 06:59:09;;;;;;;;;;;6.20;85.40;;;;;;5022970;28;89622;-47
2022/01/03 07:01:34;;;;;;;;;;;6.20;85.30;;;;;;5023252;28;87074;-46
2022/01/03 07:04:00;;;;;;;;;;;6.20;85.30;;;;;;5023317;28;87964;-47
2022/01/03 07:06:25;;;;;;;;;;;6.20;85.40;;;;;;5022866;28;88767;-48
2022/01/03 07:08:51;;;;;;;;;;;6.20;85.10;;;;;;5026650;28;86447;-47
2022/01/03 07:11:16;;;;;;;;;;;6.20;85.10;;;;;;5022909;28;89844;-49
2022/01/03 07:13:49;;;;;;;;;;;6.20;85.10;;;;;;5022116;28;87064;-47
2022/01/03 07:19:15;;;;;;;;;;;6.20;85.00;;;;;;4960801;28;87469;-47
2022/01/03 07:21:41;;;;;;;;;;;6.20;84.90;;;;;;5009526;28;87144;-48
2022/01/03 07:24:06;;;;;;;;;;;6.10;85.00;;;;;;5023033;28;89576;-47
2022/01/03 07:26:32;;;;;;;;;;;6.20;85.00;;;;;;5022213;28;89443;-47
2022/01/03 07:28:57;;;;;;;;;;;6.20;85.00;;;;;;5022828;28;87104;-47
2022/01/03 07:31:23;;;;;;;;;;;6.20;85.00;;;;;;5025451;28;89205;-48
2022/01/03 07:33:49;;;;;;;;;;;6.10;85.00;;;;;;5023493;28;86318;-47
2022/01/03 07:36:15;;;;;;;;;;;6.10;85.00;;;;;;5023068;28;87205;-47
2022/01/03 07:38:40;;;;;;;;;;;6.10;85.10;;;;;;5022746;28;88037;-48
2022/01/03 07:41:06;;;;;;;;;;;6.10;85.00;;;;;;5022454;28;88048;-47
2022/01/03 07:43:32;;;;;;;;;;;6.10;85.10;;;;;;5022971;28;89952;-49
2022/01/03 07:45:57;;;;;;;;;;;6.10;84.80;;;;;;5022489;28;89712;-47
2022/01/03 07:48:23;;;;;;;;;;;6.10;84.90;;;;;;5022396;28;87197;-47
2022/01/03 07:50:49;;;;;;;;;;;6.10;84.80;;;;;;5022954;28;87547;-47
2022/01/03 07:53:14;;;;;;;;;;;6.10;84.80;;;;;;5025303;28;89395;-48
2022/01/03 07:55:40;;;;;;;;;;;6.10;85.00;;;;;;5025196;28;89123;-47
2022/01/03 07:58:06;;;;;;;;;;;6.10;84.90;;;;;;5026271;28;88767;-47
2022/01/03 08:00:31;;;;;;;;;;;6.10;84.90;;;;;;5026097;28;87090;-47
2022/01/03 08:02:57;;;;;;;;;;;6.10;84.80;;;;;;5025701;28;89336;-49
2022/01/03 08:05:22;;;;;;;;;;;6.10;84.80;;;;;;5024864;28;90141;-47
2022/01/03 08:07:48;;;;;;;;;;;6.10;84.80;;;;;;5025878;28;87061;-47
2022/01/03 08:10:14;;;;;;;;;;;6.10;84.80;;;;;;5025821;28;89153;-48
2022/01/03 08:12:40;;;;;;;;;;;6.10;84.70;;;;;;5025440;28;89501;-48
2022/01/03 08:15:06;;;;;;;;;;;6.10;84.70;;;;;;5028767;28;87121;-47
2022/01/03 08:17:31;;;;;;;;;;;6.20;84.70;;;;;;5025156;28;90920;-47
2022/01/03 08:19:57;;;;;;;;;;;6.10;84.60;;;;;;5025838;28;87144;-47
2022/01/03 08:22:22;;;;;;;;;;;6.10;84.60;;;;;;5026535;28;86611;-49
2022/01/03 08:24:48;;;;;;;;;;;6.10;84.70;;;;;;5025364;28;88904;-48
2022/01/03 08:27:13;;;;;;;;;;;6.10;84.70;;;;;;5025012;28;87172;-48
2022/01/03 08:29:39;;;;;;;;;;;6.10;84.70;;;;;;5025143;28;89055;-49
2022/01/03 08:32:05;;;;;;;;;;;6.10;84.70;;;;;;5025027;28;89807;-47
2022/01/03 08:34:31;;;;;;;;;;;6.10;84.90;;;;;;5028673;28;87099;-47
2022/01/03 08:36:56;;;;;;;;;;;6.10;84.70;;;;;;5025244;28;89534;-47
2022/01/03 08:39:22;;;;;;;;;;;6.10;84.80;;;;;;5025587;28;87038;-47
2022/01/03 08:41:47;;;;;;;;;;;6.10;84.90;;;;;;5025531;28;88702;-47
2022/01/03 08:44:13;;;;;;;;;;;6.10;85.10;;;;;;5025037;28;89207;-48
2022/01/03 08:46:39;;;;;;;;;;;6.10;85.00;;;;;;5025706;28;86382;-50
2022/01/03 08:49:04;;;;;;;;;;;6.10;85.10;;;;;;5025261;28;88342;-47
2022/01/03 08:51:30;;;;;;;;;;;6.10;85.30;;;;;;5024951;28;89375;-48
2022/01/03 08:53:55;;;;;;;;;;;6.00;85.40;;;;;;5024687;28;88057;-47
2022/01/03 08:56:21;;;;;;;;;;;6.00;85.40;;;;;;5027683;28;90202;-47
2022/01/03 08:58:47;;;;;;;;;;;6.00;85.50;;;;;;5025229;28;87150;-48
2022/01/03 09:01:12;;;;;;;;;;;6.00;85.50;;;;;;5025581;28;87300;-47
2022/01/03 09:03:38;;;;;;;;;;;6.00;85.40;;;;;;5024746;28;88748;-47
2022/01/03 09:06:04;;;;;;;;;;;6.00;85.30;;;;;;5024167;28;87144;-47
2022/01/03 09:08:30;;;;;;;;;;;6.00;85.50;;;;;;5025124;28;88779;-47
2022/01/03 09:10:56;;;;;;;;;;;6.00;85.60;;;;;;5025210;28;88626;-48
2022/01/03 09:13:21;;;;;;;;;;;6.00;85.80;;;;;;5024876;28;87111;-47
2022/01/03 09:15:48;;;;;;;;;;;6.00;85.70;;;;;;5025034;28;88872;-49
2022/01/03 09:18:18;;;;;;;;;;;6.00;85.60;;;;;;5026637;28;90291;-47
2022/01/03 09:20:44;;;;;;;;;;;6.00;85.80;;;;;;5024971;28;89906;-49
2022/01/03 09:23:16;;;;;;;;;;;6.00;85.60;;;;;;5024362;28;89455;-48
2022/01/03 09:30:52;;;;;;;;;;;6.00;85.80;;;;;;5024592;28;87129;-49
2022/01/03 09:33:18;;;;;;;;;;;6.10;85.60;;;;;;5024458;28;87047;-48
2022/01/03 09:35:44;;;;;;;;;;;6.10;85.60;;;;;;5025249;28;89471;-47
2022/01/03 09:38:10;;;;;;;;;;;6.10;85.50;;;;;;5024507;28;87316;-47
2022/01/03 09:40:36;;;;;;;;;;;6.10;85.60;;;;;;5027393;28;87156;-48
2022/01/03 09:43:02;;;;;;;;;;;6.10;85.50;;;;;;5023375;28;90670;-48
2022/01/03 09:45:30;;;;;;;;;;;6.10;85.40;;;;;;5024420;28;86899;-47
2022/01/03 09:47:56;;;;;;;;;;;6.10;85.50;;;;;;5024293;28;88858;-48
2022/01/03 09:50:22;;;;;;;;;;;6.10;85.60;;;;;;5024076;28;89429;-47
2022/01/03 09:52:49;;;;;;;;;;;6.10;85.50;;;;;;5024309;28;87146;-52
2022/01/03 09:55:16;;;;;;;;;;;6.20;85.40;;;;;;5024456;28;88237;-48
2022/01/03 09:57:44;;;;;;;;;;;6.10;85.60;;;;;;5023872;28;88089;-48
2022/01/03 10:00:10;;;;;;;;;;;6.10;85.70;;;;;;5025018;28;86383;-48
2022/01/03 10:02:36;;;;;;;;;;;6.10;85.60;;;;;;5026774;28;88436;-48
2022/01/03 10:05:02;;;;;;;;;;;6.20;85.50;;;;;;5024064;28;86937;-51
2022/01/03 10:07:28;;;;;;;;;;;6.10;85.50;;;;;;5023562;28;88861;-47
2022/01/03 10:09:54;;;;;;;;;;;6.10;85.40;;;;;;5023899;28;89529;-46
2022/01/03 10:12:20;;;;;;;;;;;6.10;85.50;;;;;;5023885;28;87205;-47
2022/01/03 10:14:45;;;;;;;;;;;6.10;85.50;;;;;;5023991;28;88000;-47
2022/01/03 10:17:11;;;;;;;;;;;6.20;85.50;;;;;;5023632;28;88039;-47
2022/01/03 10:19:56;;;;;;;;;;;6.10;85.50;;;;;;5024208;28;87042;-47
2022/01/03 10:22:23;;;;;;;;;;;6.10;85.50;;;;;;5023878;28;88783;-48
2022/01/03 10:24:49;;;;;;;;;;;6.10;85.70;;;;;;5026892;28;88743;-47
2022/01/03 10:27:14;;;;;;;;;;;6.10;85.70;;;;;;5023210;28;88296;-47
2022/01/03 10:29:41;;;;;;;;;;;6.10;85.80;;;;;;5023703;28;87991;-47
2022/01/03 10:32:10;;;;;;;;;;;6.10;86.20;;;;;;5023252;28;88059;-48
2022/01/03 10:34:35;;;;;;;;;;;6.10;86.10;;;;;;5023936;28;88113;-49
2022/01/03 10:37:09;;;;;;;;;;;6.10;85.90;;;;;;5023300;28;89186;-48
2022/01/03 10:39:35;;;;;;;;;;;6.10;86.10;;;;;;5022193;28;87081;-48
2022/01/03 10:42:14;;;;;;;;;;;6.10;86.00;;;;;;5023818;28;88055;-48
2022/01/03 10:44:42;;;;;;;;;;;6.10;85.80;;;;;;5026146;28;89392;-49
2022/01/03 10:47:09;;;;;;;;;;;6.10;86.10;;;;;;5023536;28;88848;-47
2022/01/03 10:49:37;;;;;;;;;;;6.10;86.00;;;;;;5023682;28;87872;-47
2022/01/03 10:52:15;;;;;;;;;;;6.20;85.90;;;;;;5023379;28;87121;-48
2022/01/03 10:54:42;;;;;;;;;;;6.20;86.10;;;;;;5022098;28;90449;-49
2022/01/03 10:57:07;;;;;;;;;;;6.20;86.10;;;;;;5022402;28;90035;-47
2022/01/03 10:59:35;;;;;;;;;;;6.20;86.20;;;;;;5023304;28;87119;-49
2022/01/03 11:02:02;;;;;;;;;;;6.20;86.10;;;;;;5023403;28;88127;-47
2022/01/03 11:04:36;;;;;;;;;;;6.20;86.20;;;;;;5022931;28;89911;-47
2022/01/03 11:13:08;;;;;;;;;;;6.20;86.20;;;;;;5023137;28;87138;-46
2022/01/03 11:15:34;;;;;;;;;;;6.20;86.20;;;;;;5023785;28;88679;-47
2022/01/03 11:18:26;;;;;;;;;;;6.20;86.00;;;;;;5022770;28;88606;-50
2022/01/03 11:21:03;;;;;;;;;;;6.20;85.90;;;;;;5020909;27;87028;-49
2022/01/03 11:23:28;;;;;;;;;;;6.20;85.90;;;;;;5022437;28;88639;-49
2022/01/03 11:25:54;;;;;;;;;;;6.30;86.10;;;;;;5022070;28;89312;-47
2022/01/03 11:28:25;;;;;;;;;;;6.30;86.60;;;;;;5023057;28;86968;-49
2022/01/03 11:30:51;;;;;;;;;;;6.30;86.40;;;;;;5028404;28;87550;-47
2022/01/03 11:33:17;;;;;;;;;;;6.30;86.00;;;;;;5026252;28;87037;-50
2022/01/03 11:35:51;;;;;;;;;;;6.30;86.20;;;;;;5026599;28;87281;-48
2022/01/03 11:38:19;;;;;;;;;;;6.30;86.00;;;;;;5025826;28;90073;-47
2022/01/03 11:40:45;;;;;;;;;;;6.30;86.20;;;;;;5026857;28;86401;-47
2022/01/03 11:43:10;;;;;;;;;;;6.30;86.40;;;;;;5026458;28;88232;-48
2022/01/03 11:45:36;;;;;;;;;;;6.40;86.40;;;;;;5026195;28;89887;-47
2022/01/03 11:48:02;;;;;;;;;;;6.40;86.40;;;;;;5025570;28;88151;-48
2022/01/03 11:50:27;;;;;;;;;;;6.40;86.40;;;;;;5026280;28;89777;-47
2022/01/03 11:52:53;;;;;;;;;;;6.40;86.70;;;;;;5028481;28;89456;-48
2022/01/03 11:55:22;;;;;;;;;;;6.40;86.90;;;;;;5026472;28;88987;-47
2022/01/03 12:05:57;;;;;;;;;;;6.40;87.30;;;;;;5026526;28;86654;-50
2022/01/03 12:08:25;;;;;;;;;;;6.40;87.20;;;;;;5025942;28;87147;-47
2022/01/03 12:10:51;;;;;;;;;;;6.40;87.20;;;;;;5025961;28;88895;-47
2022/01/03 12:13:18;;;;;;;;;;;6.40;87.40;;;;;;5024787;28;90398;-48
2022/01/03 12:15:44;;;;;;;;;;;6.40;87.60;;;;;;5028623;28;86980;-49
2022/01/03 12:18:31;;;;;;;;;;;6.50;87.70;;;;;;5025315;28;89567;-47
2022/01/03 12:20:57;;;;;;;;;;;6.50;87.60;;;;;;5025774;28;86997;-47
2022/01/03 12:23:37;;;;;;;;;;;6.50;87.70;;;;;;5025815;28;88891;-48
2022/01/03 12:26:07;;;;;;;;;;;6.50;87.90;;;;;;5024729;28;89432;-47
2022/01/03 12:28:51;;;;;;;;;;;6.50;87.80;;;;;;5025872;28;87130;-48
2022/01/03 12:31:17;;;;;;;;;;;6.50;87.90;;;;;;5026074;28;88676;-48
2022/01/03 12:34:02;;;;;;;;;;;6.60;88.10;;;;;;5025009;28;88595;-48
2022/01/03 12:36:28;;;;;;;;;;;6.60;88.10;;;;;;5025186;27;87112;-47
2022/01/03 12:39:04;;;;;;;;;;;6.60;88.00;;;;;;5027427;28;88715;-48
2022/01/03 12:41:40;;;;;;;;;;;6.60;88.00;;;;;;5024102;28;87132;-47
2022/01/03 12:44:08;;;;;;;;;;;6.60;88.10;;;;;;5025524;28;89388;-49
2022/01/03 12:46:33;;;;;;;;;;;6.60;88.10;;;;;;5024911;28;89547;-46
2022/01/03 12:49:19;;;;;;;;;;;6.60;88.10;;;;;;5025568;28;87100;-49
2022/01/03 12:51:44;;;;;;;;;;;6.70;88.30;;;;;;5025379;27;89346;-48
2022/01/03 12:54:10;;;;;;;;;;;6.60;88.20;;;;;;5024957;28;89671;-49
2022/01/03 12:56:37;;;;;;;;;;;6.60;88.30;;;;;;5025645;28;86613;-47
2022/01/03 12:59:09;;;;;;;;;;;6.70;88.40;;;;;;5027773;28;87579;-47
2022/01/03 13:01:35;;;;;;;;;;;6.70;88.30;;;;;;5025152;28;87190;-48
2022/01/03 13:04:03;;;;;;;;;;;6.70;88.40;;;;;;5024608;28;87914;-47
2022/01/03 13:06:30;;;;;;;;;;;6.70;88.40;;;;;;5024724;28;89870;-49
2022/01/03 13:08:55;;;;;;;;;;;6.80;88.50;;;;;;5024944;28;87066;-48
2022/01/03 13:11:31;;;;;;;;;;;6.80;88.60;;;;;;5024897;28;88828;-47
2022/01/03 13:14:02;;;;;;;;;;;6.80;88.60;;;;;;5024461;28;89506;-47
2022/01/03 13:16:32;;;;;;;;;;;6.80;89.20;;;;;;5024735;28;87273;-48
2022/01/03 13:19:04;;;;;;;;;;;6.80;88.70;;;;;;5023668;28;90785;-47
2022/01/03 13:21:32;;;;;;;;;;;6.80;88.60;;;;;;5027891;28;88606;-50
2022/01/03 13:24:01;;;;;;;;;;;6.80;88.80;;;;;;5025072;28;88014;-49
2022/01/03 13:26:31;;;;;;;;;;;6.80;88.80;;;;;;5024055;28;90120;-49
2022/01/03 13:28:58;;;;;;;;;;;6.80;88.80;;;;;;5023797;28;88030;-49
2022/01/03 13:31:23;;;;;;;;;;;6.90;88.90;;;;;;5024656;28;89730;-47
2022/01/03 13:34:02;;;;;;;;;;;6.90;88.90;;;;;;5024409;28;88112;-48
2022/01/03 13:36:45;;;;;;;;;;;6.90;88.90;;;;;;5024562;28;87138;-48
2022/01/03 13:39:14;;;;;;;;;;;6.90;89.00;;;;;;5024739;28;89008;-48
2022/01/03 13:41:41;;;;;;;;;;;6.90;89.00;;;;;;5023859;28;89906;-48
2022/01/03 13:44:09;;;;;;;;;;;6.90;89.10;;;;;;5027523;28;87058;-48
2022/01/03 13:49:24;;;;;;;;;;;6.90;89.20;;;;;;5018416;28;86977;-47
2022/01/03 13:51:53;;;;;;;;;;;6.90;88.00;;;;;;5016472;28;87136;-46
2022/01/03 13:54:27;;;;;;;;;;;7.30;85.60;;;;;;5023029;28;90606;-43
2022/01/03 13:56:53;;;;;;;;;;;7.50;86.20;;;;;;5024496;28;87126;-45
2022/01/03 13:59:20;;;;;;;;;;;7.60;84.40;;;;;;5024208;28;88711;-44
2022/01/03 14:01:46;;;;;;;;;;;7.70;83.70;;;;;;5024033;28;88376;-45
2022/01/03 14:04:12;;;;;;;;;;;7.70;85.00;;;;;;5024263;28;87122;-44
2022/01/03 14:06:38;;;;;;;;;;;7.90;84.60;;;;;;5026559;28;87891;-47
2022/01/03 14:09:17;;;;;;;;;;;7.90;84.70;;;;;;5024025;28;86862;-44
2022/01/03 14:11:44;;;;;;;;;;;7.90;84.40;;;;;;5024586;28;89540;-44
2022/01/03 14:14:09;;;;;;;;;;;7.90;84.90;;;;;;5023417;28;89124;-48
2022/01/03 14:16:49;;;;;;;;;;;8.00;84.00;;;;;;5023938;28;87570;-43
2022/01/03 14:19:14;;;;;;;;;;;8.10;83.10;;;;;;5023378;28;87977;-40
2022/01/03 14:21:40;;;;;;;;;;;8.30;83.10;;;;;;5023614;28;89751;-44
2022/01/03 14:24:06;;;;;;;;;;;8.20;82.20;;;;;;5023870;28;87119;-46
2022/01/03 14:26:32;;;;;;;;;;;8.10;82.70;;;;;;5023117;28;87649;-45
2022/01/03 14:29:01;;;;;;;;;;;8.00;83.20;;;;;;5026359;28;89880;-45
2022/01/03 14:31:39;;;;;;;;;;;8.00;83.10;;;;;;5023831;28;88762;-44
2022/01/03 14:34:06;;;;;;;;;;;8.00;83.70;;;;;;5023137;28;88410;-50
2022/01/03 14:36:36;;;;;;;;;;;8.00;83.70;;;;;;5024209;28;86487;-47
2022/01/03 14:39:02;;;;;;;;;;;8.00;85.00;;;;;;5024148;28;87017;-46
2022/01/03 14:41:27;;;;;;;;;;;7.90;85.80;;;;;;5023070;28;89227;-46
2022/01/03 14:43:59;;;;;;;;;;;7.90;86.00;;;;;;5022926;28;87978;-46
2022/01/03 14:46:44;;;;;;;;;;;8.00;86.20;;;;;;5021967;28;91604;-47
2022/01/03 14:49:17;;;;;;;;;;;7.90;86.40;;;;;;5023379;28;89533;-46
2022/01/03 14:51:47;;;;;;;;;;;7.90;86.60;;;;;;5025968;28;86833;-46
2022/01/03 14:54:17;;;;;;;;;;;7.90;86.70;;;;;;5023152;28;89620;-46
2022/01/03 14:56:43;;;;;;;;;;;7.90;86.90;;;;;;5023230;28;87015;-47
2022/01/03 14:59:09;;;;;;;;;;;7.90;87.00;;;;;;5023483;28;88495;-46